Chicago, Illinois
Traffic Map
Current Weather Conditions
Chicago, Illinois
Clear
Clear
47°
Feels Like: 47°
Wind Chill: 47° Ceiling: Unl
Heat Index: 47° Visibility: 10mi
Dew Point: 29° Wind: 3mph
Humidity: 50% Direction: 140° (SE)
Pressure: 30.15in Gusts: 0mph
Raw Report DataKMDW 230553Z 14003KT 10SM CLR 08/M02 A3015 RMK AO2 SLP212 T00831017 10128 20078 401440067 58003
Traffic Incident Summary
Active as of:
Severity:
Category:
InformationThere was an issue retrieving the traffic information for this location. Please try a different location or try again shortly.
Advertisements
Track Severe Weather on mobile